Time;durP1;ratioP1;P1;durP2;ratioP2;P2;SDS_P1;SDS_P2;PMS_P1;PMS_P2;Temp;Humidity;BMP_temperature;BMP_pressure;BME280_temperature;BME280_humidity;BME280_pressure;Samples;Min_cycle;Max_cycle;Signal;HPM_P1;HPM_P2
2021/11/02 00:00:02;;;;;;;53.28;38.98;;;;;;;9.06;66.79;100435.81;1707093;82;21136;-69
2021/11/02 00:02:33;;;;;;;52.25;37.45;;;;;;;9.06;66.66;100437.14;1708432;81;26915;-70
2021/11/02 00:05:00;;;;;;;54.23;41.00;;;;;;;9.08;66.64;100434.21;1706915;82;21568;-71
2021/11/02 00:07:27;;;;;;;57.67;42.10;;;;;;;9.09;66.57;100427.32;1707534;82;21434;-71
2021/11/02 00:10:01;;;;;;;51.95;37.78;;;;;;;9.09;66.53;100421.98;1707992;82;21652;-70
2021/11/02 00:12:29;;;;;;;55.88;40.38;;;;;;;9.09;66.46;100417.20;1682759;84;21501;-71
2021/11/02 00:14:57;;;;;;;54.25;38.88;;;;;;;9.06;66.46;100423.02;1707166;84;21206;-70
2021/11/02 00:17:27;;;;;;;57.20;40.92;;;;;;;9.08;66.47;100421.72;1707198;84;21438;-70
2021/11/02 00:19:57;;;;;;;54.25;38.63;;;;;;;9.06;66.48;100421.16;1705552;82;22341;-70
2021/11/02 00:22:23;;;;;;;54.58;39.70;;;;;;;9.04;66.52;100413.13;1707828;82;21030;-71
2021/11/02 00:27:21;;;;;;;53.90;38.95;;;;;;;9.08;66.66;100411.56;1706522;82;21014;-70
2021/11/02 00:29:48;;;;;;;55.05;39.92;;;;;;;9.11;66.66;100411.06;1707649;82;20962;-70
2021/11/02 00:32:15;;;;;;;52.17;38.65;;;;;;;9.16;66.57;100405.80;1677561;84;21197;-71
2021/11/02 00:34:43;;;;;;;57.08;41.65;;;;;;;9.19;66.53;100407.17;1707508;84;21016;-72
2021/11/02 00:37:10;;;;;;;55.90;41.10;;;;;;;9.19;66.45;100403.97;1707340;82;21042;-70
2021/11/02 00:39:37;;;;;;;50.90;38.45;;;;;;;9.20;66.43;100406.11;1707229;82;21567;-71
2021/11/02 00:42:04;;;;;;;54.20;38.75;;;;;;;9.22;66.35;100412.80;1716637;82;20976;-70
2021/11/02 00:44:35;;;;;;;52.35;37.53;;;;;;;9.23;66.33;100411.73;1727547;81;22174;-70
2021/11/02 00:47:05;;;;;;;51.58;38.13;;;;;;;9.23;66.35;100413.59;1707858;83;20989;-71
2021/11/02 00:49:32;;;;;;;56.20;41.28;;;;;;;9.24;66.39;100415.20;1711309;82;21573;-70
2021/11/02 00:52:00;;;;;;;55.25;40.80;;;;;;;9.23;66.38;100416.27;1707249;82;20998;-71
2021/11/02 00:54:26;;;;;;;52.50;38.50;;;;;;;9.26;66.36;100423.23;1707509;84;21044;-70
2021/11/02 00:56:53;;;;;;;50.10;36.95;;;;;;;9.27;66.36;100411.50;1713491;82;21845;-71
2021/11/02 00:59:20;;;;;;;53.13;38.95;;;;;;;9.27;66.31;100404.04;1723213;82;21012;-70
2021/11/02 01:01:46;;;;;;;53.75;39.15;;;;;;;9.24;66.35;100404.54;1713390;82;21026;-71
2021/11/02 01:04:13;;;;;;;57.05;40.90;;;;;;;9.21;66.40;100396.52;1707770;82;21095;-71
2021/11/02 01:06:40;;;;;;;56.53;40.52;;;;;;;9.21;66.43;100390.38;1707929;82;21138;-71
2021/11/02 01:09:07;;;;;;;50.80;38.48;;;;;;;9.23;66.47;100398.95;1707330;82;22190;-71
2021/11/02 01:11:37;;;;;;;53.80;39.70;;;;;;;9.24;66.48;100396.02;1678001;84;21074;-71
2021/11/02 01:14:04;;;;;;;52.67;39.15;;;;;;;9.20;66.54;100390.12;1707861;84;21074;-71
2021/11/02 01:16:34;;;;;;;56.85;41.28;;;;;;;9.16;66.60;100393.28;1737689;81;21089;-71
2021/11/02 01:19:00;;;;;;;53.52;39.65;;;;;;;9.12;66.69;100388.72;1723424;82;21143;-71
2021/11/02 01:21:28;;;;;;;51.25;37.42;;;;;;;9.12;66.79;100391.38;1708029;82;21311;-71
2021/11/02 01:23:55;;;;;;;50.03;38.85;;;;;;;9.11;66.91;100381.26;1729327;82;20967;-71
2021/11/02 01:26:22;;;;;;;53.70;40.85;;;;;;;9.10;66.98;100374.30;1706937;83;21074;-71
2021/11/02 01:28:48;;;;;;;56.65;41.60;;;;;;;9.11;67.04;100381.26;1707642;84;21580;-71
2021/11/02 01:31:18;;;;;;;51.37;39.60;;;;;;;9.12;67.03;100366.07;1707107;82;20968;-71
2021/11/02 01:33:45;;;;;;;48.92;36.53;;;;;;;9.12;67.09;100373.53;1707071;82;21120;-70
2021/11/02 01:36:12;;;;;;;49.25;36.90;;;;;;;9.12;67.15;100372.20;1677142;84;21034;-70
2021/11/02 01:38:40;;;;;;;52.45;39.65;;;;;;;9.12;67.19;100375.40;1707662;84;21061;-71
2021/11/02 01:41:09;;;;;;;53.28;38.60;;;;;;;9.10;67.28;100371.64;1707974;82;20999;-71
2021/11/02 01:43:36;;;;;;;53.15;38.80;;;;;;;9.11;67.42;100373.77;1717424;82;21014;-71
2021/11/02 01:46:04;;;;;;;52.23;35.73;;;;;;;9.13;67.47;100372.47;1716310;82;21162;-72
2021/11/02 01:48:33;;;;;;;51.83;38.48;;;;;;;9.19;67.48;100364.00;1725721;81;21446;-71
2021/11/02 01:51:01;;;;;;;51.58;37.23;;;;;;;9.17;67.56;100364.77;1721642;82;21245;-71
2021/11/02 01:53:28;;;;;;;51.00;38.10;;;;;;;9.17;67.65;100364.77;1707357;82;21515;-71
2021/11/02 01:55:56;;;;;;;58.52;42.67;;;;;;;9.17;67.74;100347.45;1726831;82;20986;-71
2021/11/02 01:58:23;;;;;;;52.62;38.15;;;;;;;9.15;67.81;100360.23;1710067;82;21801;-71
2021/11/02 02:00:57;;;;;;;56.45;39.90;;;;;;;9.12;67.91;100353.55;1708592;82;21048;-71
2021/11/02 02:03:51;;;;;;;52.65;41.18;;;;;;;9.12;67.98;100352.22;1699479;84;21042;-71
2021/11/02 02:06:48;;;;;;;50.88;37.45;;;;;;;9.13;68.06;100355.14;1707029;82;21066;-70
2021/11/02 02:09:29;;;;;;;52.33;37.98;;;;;;;9.20;68.11;100344.28;1705732;82;21012;-71
2021/11/02 02:12:31;;;;;;;55.88;39.70;;;;;;;9.25;68.08;100342.21;1706879;82;21011;-71
2021/11/02 02:15:12;;;;;;;49.20;36.38;;;;;;;9.25;68.06;100332.88;1736563;82;21240;-71
2021/11/02 02:18:08;;;;;;;54.35;39.45;;;;;;;9.26;68.09;100334.48;1715310;82;21050;-70
2021/11/02 02:21:04;;;;;;;56.20;40.33;;;;;;;9.25;68.14;100330.22;1707621;84;21022;-70
2021/11/02 02:24:12;;;;;;;54.53;39.78;;;;;;;9.25;68.21;100332.88;1724070;82;21526;-70
2021/11/02 02:27:11;;;;;;;55.08;39.15;;;;;;;9.26;68.27;100319.82;1723706;82;21821;-70
2021/11/02 02:29:40;;;;;;;51.85;39.33;;;;;;;9.22;68.38;100324.86;1707721;82;21032;-71
2021/11/02 02:32:10;;;;;;;52.93;38.20;;;;;;;9.18;68.46;100321.10;1707146;82;20977;-71
2021/11/02 02:34:38;;;;;;;51.10;38.63;;;;;;;9.16;68.59;100320.53;1709626;82;21250;-71
2021/11/02 02:37:04;;;;;;;51.90;38.13;;;;;;;9.16;68.66;100317.34;1652596;85;21080;-71
2021/11/02 02:39:34;;;;;;;58.95;41.92;;;;;;;9.18;68.68;100312.27;1711180;81;21340;-71
2021/11/02 02:42:07;;;;;;;53.42;40.17;;;;;;;9.18;68.69;100308.28;1737366;82;20964;-71
2021/11/02 02:44:36;;;;;;;53.87;39.75;;;;;;;9.18;68.75;100306.45;1729985;82;21058;-69
2021/11/02 02:47:04;;;;;;;53.55;41.05;;;;;;;9.21;68.76;100309.11;1737524;82;21507;-70
2021/11/02 02:49:31;;;;;;;56.90;40.30;;;;;;;9.23;68.80;100308.34;1687519;82;21029;-71
2021/11/02 02:51:57;;;;;;;49.73;37.03;;;;;;;9.26;68.78;100306.50;1655356;85;21115;-71
2021/11/02 02:54:25;;;;;;;51.42;38.33;;;;;;;9.28;68.79;100307.03;1704410;82;21623;-71
2021/11/02 02:56:52;;;;;;;53.00;40.92;;;;;;;9.27;68.85;100306.23;1677368;84;21049;-71
2021/11/02 02:59:21;;;;;;;53.40;40.20;;;;;;;9.27;68.81;100294.77;1728361;81;21069;-71
2021/11/02 03:01:51;;;;;;;53.95;40.30;;;;;;;9.25;68.87;100299.03;1688737;84;21092;-71
2021/11/02 03:04:21;;;;;;;52.55;40.52;;;;;;;9.23;69.00;100299.01;1677036;84;21122;-71
2021/11/02 03:06:52;;;;;;;52.00;39.40;;;;;;;9.24;69.05;100295.28;1658481;83;21025;-71
2021/11/02 03:09:21;;;;;;;49.13;38.78;;;;;;;9.24;69.14;100297.94;1702974;81;21265;-71
2021/11/02 03:11:50;;;;;;;54.80;40.00;;;;;;;9.23;69.16;100309.67;1678938;84;21062;-71
2021/11/02 03:14:33;;;;;;;50.15;37.58;;;;;;;9.20;69.21;100310.17;1727404;82;21159;-71
2021/11/02 03:17:06;;;;;;;52.40;40.43;;;;;;;9.17;69.30;100307.48;1727468;82;21156;-70
2021/11/02 03:45:12;;;;;;;52.55;38.00;;;;;;;9.31;69.54;100282.53;1677303;84;21132;-70
2021/11/02 03:50:11;;;;;;;47.65;36.05;;;;;;;9.26;69.69;100281.98;1709291;83;20168;-70
2021/11/02 03:55:00;;;;;;;49.85;38.10;;;;;;;9.21;69.88;100275.27;1708196;82;20978;-71
2021/11/02 04:27:58;;;;;;;47.70;35.60;;;;;;;9.25;70.31;100243.07;1707416;82;21011;-70
2021/11/02 05:46:47;;;;;;;51.73;37.42;;;;;;;9.31;71.09;100217.23;1707602;84;21094;-70
2021/11/02 05:52:25;;;;;;;46.40;32.73;;;;;;;9.28;71.07;100215.08;1707336;82;21032;-70
2021/11/02 06:00:01;;;;;;;49.70;33.05;;;;;;;9.35;71.13;100217.02;1710398;82;21810;-71
2021/11/02 06:08:35;;;;;;;44.50;32.83;;;;;;;9.39;71.01;100226.10;1707217;84;20982;-71
2021/11/02 06:28:08;;;;;;;47.33;32.13;;;;;;;9.43;71.11;100228.52;1677743;85;21191;-71
2021/11/02 06:54:43;;;;;;;46.63;33.42;;;;;;;9.59;71.34;100217.42;1708254;82;21721;-71
2021/11/02 07:19:56;;;;;;;42.17;29.95;;;;;;;9.66;71.86;100217.98;1720270;82;21056;-72
2021/11/02 07:22:39;;;;;;;46.80;33.85;;;;;;;9.71;71.94;100215.90;1711353;82;22002;-71
2021/11/02 07:28:01;;;;;;;48.40;34.75;;;;;;;9.82;71.98;100214.87;1707466;82;21017;-71
2021/11/02 08:46:36;;;;;;;22.65;18.20;;;;;;;10.22;71.73;100136.80;1707369;84;21110;-72
2021/11/02 08:48:57;;;;;;;23.65;20.45;;;;;;;10.21;71.74;100131.75;1705418;82;21473;-72
2021/11/02 08:51:28;;;;;;;24.18;19.40;;;;;;;10.23;71.72;100137.09;1710394;82;21058;-73
2021/11/02 08:53:55;;;;;;;22.75;18.95;;;;;;;10.26;71.71;100126.43;1707685;84;21022;-71
2021/11/02 08:56:24;;;;;;;22.90;18.77;;;;;;;10.30;71.65;100123.52;1707303;82;21069;-70
2021/11/02 08:58:53;;;;;;;23.85;19.57;;;;;;;10.33;71.61;100118.45;1707929;82;21122;-72
2021/11/02 09:01:23;;;;;;;24.23;19.80;;;;;;;10.36;71.63;100126.44;1709053;82;21087;-72
2021/11/02 09:04:01;;;;;;;24.18;19.15;;;;;;;10.39;71.71;100117.11;1731571;82;21056;-72
2021/11/02 09:06:28;;;;;;;21.40;17.30;;;;;;;10.43;71.73;100116.32;1707885;82;21097;-73
2021/11/02 09:08:57;;;;;;;21.30;16.95;;;;;;;10.48;71.65;100105.63;1691736;84;21112;-72
2021/11/02 09:11:26;;;;;;;20.23;16.80;;;;;;;10.52;71.56;100099.22;1712788;82;21541;-72
2021/11/02 09:13:55;;;;;;;19.70;16.15;;;;;;;10.59;71.47;100096.28;1686719;84;21179;-71
2021/11/02 09:16:24;;;;;;;21.57;17.20;;;;;;;10.60;71.23;100097.90;1707587;82;21028;-72
2021/11/02 09:18:52;;;;;;;18.37;16.25;;;;;;;10.57;71.12;100093.89;1677138;84;21053;-72
2021/11/02 09:21:20;;;;;;;20.57;15.23;;;;;;;10.58;71.20;100091.47;1727377;81;21612;-71
2021/11/02 09:23:49;;;;;;;18.57;15.13;;;;;;;10.62;71.25;100090.40;1712487;82;21152;-72
2021/11/02 09:26:17;;;;;;;16.85;14.78;;;;;;;10.62;71.04;100085.06;1707134;82;21604;-72
2021/11/02 09:28:44;;;;;;;18.80;15.63;;;;;;;10.64;71.11;100077.59;1707435;82;21013;-71
2021/11/02 09:31:13;;;;;;;16.97;14.75;;;;;;;10.68;71.12;100081.32;1707493;82;21120;-72
2021/11/02 09:33:40;;;;;;;22.00;17.75;;;;;;;10.73;71.23;100074.11;1710125;82;21049;-71
2021/11/02 09:36:08;;;;;;;19.42;15.93;;;;;;;10.77;71.13;100074.37;1707713;83;21172;-72
2021/11/02 09:38:55;;;;;;;21.12;17.42;;;;;;;10.78;71.08;100060.73;1718656;82;21127;-72
2021/11/02 09:41:56;;;;;;;21.93;17.67;;;;;;;10.80;71.19;100053.25;1722198;82;21060;-72
2021/11/02 09:44:36;;;;;;;21.95;18.07;;;;;;;10.84;71.22;100056.72;1679721;82;21154;-72
2021/11/02 09:47:25;;;;;;;18.73;16.73;;;;;;;10.86;71.17;100048.70;1724402;82;21122;-72
2021/11/02 09:50:16;;;;;;;18.70;16.48;;;;;;;10.88;71.17;100047.88;1706947;82;21152;-72
2021/11/02 09:53:28;;;;;;;17.90;15.80;;;;;;;10.89;71.32;100042.83;1712206;82;21102;-71
2021/11/02 09:56:23;;;;;;;17.48;15.53;;;;;;;10.87;71.16;100036.94;1714951;82;20994;-71
2021/11/02 09:59:21;;;;;;;17.60;14.90;;;;;;;10.85;71.16;100031.59;1707355;82;21220;-71
2021/11/02 10:02:22;;;;;;;17.73;14.87;;;;;;;10.83;71.17;100028.42;1706521;82;21018;-72
2021/11/02 10:04:57;;;;;;;15.98;14.23;;;;;;;10.82;71.23;100027.59;1707561;82;21164;-71
2021/11/02 10:07:58;;;;;;;20.20;16.23;;;;;;;10.82;71.21;100019.58;1706997;82;21051;-70
2021/11/02 10:10:27;;;;;;;19.82;15.60;;;;;;;10.84;71.29;100012.64;1650451;84;21081;-71
2021/11/02 10:13:13;;;;;;;20.27;15.43;;;;;;;10.87;71.29;100002.20;1715184;82;21061;-71
2021/11/02 10:16:05;;;;;;;18.57;15.78;;;;;;;10.88;71.25;100001.12;1683399;84;21548;-71
2021/11/02 10:19:16;;;;;;;16.42;13.93;;;;;;;10.90;71.30;99998.20;1730524;81;21374;-72
2021/11/02 10:22:26;;;;;;;17.77;14.23;;;;;;;10.95;71.27;99995.49;1707879;82;20966;-71
2021/11/02 10:25:11;;;;;;;16.93;13.68;;;;;;;10.94;71.20;99984.55;1696262;84;21029;-71
2021/11/02 10:28:09;;;;;;;16.07;13.80;;;;;;;10.90;71.26;99991.52;1707126;82;21074;-72
2021/11/02 10:30:59;;;;;;;16.90;14.30;;;;;;;10.89;71.23;99984.05;1676604;85;21133;-71
2021/11/02 10:33:35;;;;;;;17.62;14.13;;;;;;;10.85;71.12;99975.49;1716250;82;21120;-71
2021/11/02 10:36:46;;;;;;;16.20;14.45;;;;;;;10.85;71.19;99969.61;1707018;84;21117;-70
2021/11/02 10:39:26;;;;;;;17.45;13.80;;;;;;;10.83;71.19;99970.44;1706090;82;21531;-72
2021/11/02 10:42:11;;;;;;;19.52;15.88;;;;;;;10.82;71.22;99966.69;1705043;83;21549;-71
2021/11/02 10:45:04;;;;;;;15.48;12.98;;;;;;;10.79;71.24;99970.19;1741628;81;21523;-72
2021/11/02 10:48:03;;;;;;;17.53;14.57;;;;;;;10.78;71.26;99959.76;1678570;84;21083;-71
2021/11/02 10:50:37;;;;;;;18.57;15.30;;;;;;;10.78;71.32;99958.42;1670764;84;21069;-69
2021/11/02 10:53:01;;;;;;;17.77;14.65;;;;;;;10.83;71.42;99951.73;1671143;84;21196;-71
2021/11/02 10:55:56;;;;;;;16.70;13.50;;;;;;;10.87;71.48;99949.31;1668838;84;21034;-70
2021/11/02 10:58:36;;;;;;;16.77;14.05;;;;;;;10.88;71.57;99947.70;1647557;84;21069;-71
2021/11/02 11:01:05;;;;;;;17.25;14.30;;;;;;;10.93;71.56;99937.00;1668581;84;21153;-71
2021/11/02 11:03:35;;;;;;;15.23;13.48;;;;;;;10.94;71.60;99927.90;1669635;84;21039;-70
2021/11/02 11:06:08;;;;;;;19.10;14.10;;;;;;;10.95;71.57;99929.48;1669468;84;21104;-70
2021/11/02 11:08:38;;;;;;;16.70;14.53;;;;;;;10.94;71.46;99916.42;1642015;87;21565;-71
2021/11/02 11:11:14;;;;;;;16.73;13.68;;;;;;;10.89;71.42;99906.56;1670270;84;21531;-71
2021/11/02 11:13:46;;;;;;;15.88;14.18;;;;;;;10.87;71.46;99907.91;1615909;87;21134;-70
2021/11/02 11:16:24;;;;;;;18.45;15.30;;;;;;;10.87;71.50;99899.89;1637511;86;21032;-72
2021/11/02 11:19:09;;;;;;;18.48;14.95;;;;;;;10.87;71.59;99891.88;1641617;86;21046;-71
2021/11/02 11:21:39;;;;;;;18.02;14.38;;;;;;;10.90;71.71;99901.47;1640568;86;21114;-70
2021/11/02 11:24:46;;;;;;;19.62;15.58;;;;;;;10.94;71.69;99893.16;1639598;86;21082;-70
2021/11/02 11:27:13;;;;;;;14.80;12.93;;;;;;;10.99;71.77;99891.81;1670362;84;21101;-71
2021/11/02 11:29:47;;;;;;;14.68;11.70;;;;;;;11.09;71.84;99896.81;1676179;84;21018;-70
2021/11/02 11:32:18;;;;;;;13.18;11.65;;;;;;;11.11;71.81;99893.34;1674646;84;21038;-71
2021/11/02 11:34:47;;;;;;;13.08;11.48;;;;;;;11.12;71.94;99889.58;1669982;86;21442;-71
2021/11/02 11:37:14;;;;;;;15.15;13.05;;;;;;;11.15;71.92;99891.16;1640385;86;21209;-70
2021/11/02 11:39:42;;;;;;;15.45;13.58;;;;;;;11.17;71.90;99881.55;1672445;84;22033;-71
2021/11/02 11:42:13;;;;;;;17.77;14.13;;;;;;;11.18;71.91;99882.59;1649589;86;21015;-71
2021/11/02 11:44:45;;;;;;;16.93;14.50;;;;;;;11.22;71.85;99879.65;1652405;85;21617;-71
2021/11/02 11:47:14;;;;;;;;;;;;;;;11.22;71.79;99872.97;1672475;84;20985;-70
2021/11/02 11:49:45;;;;;;;15.88;13.00;;;;;;;11.24;71.73;99878.02;1641057;86;20664;-71
2021/11/02 11:52:11;;;;;;;15.75;14.05;;;;;;;11.24;71.81;99876.14;1640974;86;22204;-70
2021/11/02 11:54:46;;;;;;;16.23;14.00;;;;;;;11.27;71.90;99871.58;1645656;84;21225;-71
2021/11/02 11:57:27;;;;;;;15.00;13.28;;;;;;;11.27;71.97;99875.59;1665333;84;20972;-71
2021/11/02 12:00:03;;;;;;;18.00;15.50;;;;;;;11.26;72.01;99870.53;1647613;84;21081;-71
2021/11/02 12:02:49;;;;;;;19.55;16.80;;;;;;;11.32;71.97;99870.77;1670092;84;21025;-71
2021/11/02 12:05:17;;;;;;;17.12;15.30;;;;;;;11.31;71.98;99871.81;1648364;84;21130;-71
2021/11/02 12:08:23;;;;;;;17.80;15.68;;;;;;;11.28;72.03;99875.05;1668177;84;21054;-71
2021/11/02 12:10:52;;;;;;;14.58;13.05;;;;;;;11.21;72.08;99871.34;1634583;86;21085;-69
2021/11/02 12:13:19;;;;;;;16.50;14.30;;;;;;;11.12;72.25;99868.20;1673679;84;21501;-70
2021/11/02 12:16:16;;;;;;;16.62;14.07;;;;;;;11.08;72.33;99874.64;1641536;84;21572;-70
2021/11/02 12:18:42;;;;;;;14.78;13.18;;;;;;;11.07;72.38;99869.05;1651006;84;21932;-69
2021/11/02 12:21:16;;;;;;;16.15;14.13;;;;;;;11.05;72.49;99875.19;1641100;86;21036;-69
2021/11/02 12:23:42;;;;;;;15.55;13.62;;;;;;;11.03;72.58;99876.82;1674366;84;21098;-69
2021/11/02 12:26:10;;;;;;;15.75;13.25;;;;;;;11.06;72.57;99872.01;1640869;86;21022;-69
2021/11/02 12:28:45;;;;;;;15.63;13.90;;;;;;;11.06;72.69;99867.45;1671297;85;21600;-69
2021/11/02 12:31:11;;;;;;;18.92;15.83;;;;;;;11.07;72.70;99865.58;1669381;84;21111;-69
2021/11/02 12:33:44;;;;;;;18.92;15.60;;;;;;;11.11;72.62;99863.94;1671419;84;21174;-69
2021/11/02 12:36:12;;;;;;;16.97;14.68;;;;;;;11.11;72.50;99855.92;1641229;86;21051;-69
2021/11/02 12:38:41;;;;;;;17.30;14.90;;;;;;;11.06;72.52;99851.97;1622725;85;21024;-68
2021/11/02 12:41:23;;;;;;;17.90;15.13;;;;;;;11.04;72.52;99849.01;1657918;84;21504;-71
2021/11/02 12:44:09;;;;;;;18.15;14.78;;;;;;;11.06;72.50;99849.30;1670206;84;21145;-70
2021/11/02 12:46:44;;;;;;;20.70;15.98;;;;;;;11.04;72.52;99850.34;1669868;84;21081;-69
2021/11/02 12:49:08;;;;;;;23.12;17.30;;;;;;;11.02;72.58;99847.69;1670039;84;21006;-69
2021/11/02 12:51:45;;;;;;;16.95;14.47;;;;;;;11.01;72.62;99838.08;1645712;84;21066;-69
2021/11/02 12:54:16;;;;;;;19.70;16.65;;;;;;;11.00;72.72;99835.95;1625206;86;20978;-69
2021/11/02 12:57:00;;;;;;;23.35;18.10;;;;;;;10.99;72.79;99827.69;1668669;84;21077;-69
2021/11/02 12:59:40;;;;;;;20.23;16.15;;;;;;;10.98;72.87;99830.08;1649993;84;21070;-70
2021/11/02 13:02:37;;;;;;;20.48;17.30;;;;;;;10.99;73.00;99823.67;1668862;84;20975;-69
2021/11/02 13:05:22;;;;;;;19.98;16.17;;;;;;;10.98;73.04;99824.73;1671139;84;21038;-70
2021/11/02 13:08:16;;;;;;;23.52;17.57;;;;;;;10.99;73.09;99821.00;1669658;84;21075;-70
2021/11/02 13:10:44;;;;;;;25.80;18.95;;;;;;;10.99;73.16;99822.84;1678134;84;21224;-70
2021/11/02 13:13:15;;;;;;;22.82;17.60;;;;;;;10.95;73.24;99820.48;1671119;84;21683;-70
2021/11/02 13:15:57;;;;;;;22.55;16.87;;;;;;;10.95;73.36;99815.13;1671540;84;21101;-70
2021/11/02 13:18:39;;;;;;;26.77;21.07;;;;;;;10.93;73.43;99815.42;1669688;84;21066;-69
2021/11/02 13:21:31;;;;;;;;;;;;;;;10.92;73.52;99807.67;1673205;84;21050;-69
2021/11/02 13:24:07;;;;;;;23.45;19.42;;;;;;;10.94;73.54;99804.98;1649460;84;21187;-69
2021/11/02 13:26:42;;;;;;;23.70;18.67;;;;;;;10.93;73.61;99801.27;1647928;85;21652;-69
2021/11/02 13:29:20;;;;;;;23.62;17.40;;;;;;;10.92;73.71;99796.44;1663141;84;21513;-70
2021/11/02 13:31:52;;;;;;;27.65;21.12;;;;;;;10.94;73.79;99794.30;1670451;84;21007;-70
2021/11/02 13:34:40;;;;;;;27.40;19.50;;;;;;;10.95;73.85;99805.23;1670195;84;21014;-70
2021/11/02 13:37:10;;;;;;;24.50;19.00;;;;;;;10.95;73.91;99809.25;1671087;84;21782;-70
2021/11/02 13:39:57;;;;;;;23.57;17.98;;;;;;;10.96;74.00;99802.06;1669895;84;21087;-70
2021/11/02 13:42:49;;;;;;;22.00;17.52;;;;;;;10.96;74.03;99792.16;1669314;84;21153;-70
2021/11/02 13:45:21;;;;;;;23.92;18.75;;;;;;;11.01;74.05;99789.98;1670046;84;21039;-69
2021/11/02 13:47:50;;;;;;;25.92;18.82;;;;;;;11.03;74.07;99787.30;1669981;84;21073;-70
2021/11/02 13:50:17;;;;;;;24.57;19.35;;;;;;;11.07;74.09;99791.55;1683363;84;21874;-69
2021/11/02 13:52:46;;;;;;;22.87;16.87;;;;;;;11.14;74.05;99793.90;1670384;84;21404;-70
2021/11/02 13:55:13;;;;;;;23.57;18.65;;;;;;;11.17;74.03;99790.13;1670164;83;21091;-69
2021/11/02 13:57:39;;;;;;;24.55;18.20;;;;;;;11.20;73.94;99783.44;1669859;84;21011;-70
2021/11/02 14:00:07;;;;;;;21.35;16.87;;;;;;;11.21;73.91;99793.03;1668609;84;21033;-71
2021/11/02 14:02:38;;;;;;;25.85;20.62;;;;;;;11.23;73.90;99795.70;1668600;84;27347;-70
2021/11/02 14:05:05;;;;;;;27.27;20.37;;;;;;;11.24;73.90;99795.95;1670405;84;21102;-69
2021/11/02 14:07:32;;;;;;;24.98;18.45;;;;;;;11.28;73.88;99788.16;1670972;84;20979;-70
2021/11/02 14:10:09;;;;;;;21.82;16.93;;;;;;;11.33;73.86;99785.46;1668229;84;20975;-70
2021/11/02 14:12:53;;;;;;;20.95;16.75;;;;;;;11.38;73.80;99785.40;1667372;84;21062;-69
2021/11/02 14:15:21;;;;;;;19.82;15.83;;;;;;;11.41;73.72;99782.71;1656847;84;21525;-69
2021/11/02 14:18:11;;;;;;;21.23;16.15;;;;;;;11.40;73.64;99784.59;1670112;84;21513;-70
2021/11/02 14:20:49;;;;;;;23.73;19.05;;;;;;;11.41;73.67;99778.16;1668382;84;21071;-70
2021/11/02 14:23:34;;;;;;;22.05;17.57;;;;;;;11.40;73.60;99775.23;1670869;84;21015;-71
2021/11/02 14:26:24;;;;;;;26.95;17.95;;;;;;;11.40;73.62;99772.56;1662933;84;21112;-70
2021/11/02 14:28:57;;;;;;;32.88;18.95;;;;;;;11.38;73.66;99773.36;1671261;84;21153;-70
2021/11/02 14:31:43;;;;;;;21.52;15.78;;;;;;;11.37;73.70;99771.78;1669220;84;22536;-70
2021/11/02 14:34:43;;;;;;;24.50;17.10;;;;;;;11.40;73.67;99775.23;1671560;84;20987;-70
2021/11/02 14:37:19;;;;;;;32.78;19.07;;;;;;;11.38;73.68;99773.36;1660324;84;21514;-70
2021/11/02 14:40:05;;;;;;;23.67;17.73;;;;;;;11.38;73.72;99777.38;1671873;84;21046;-71
2021/11/02 14:42:49;;;;;;;23.70;16.07;;;;;;;11.41;73.75;99776.81;1670121;84;21186;-70
2021/11/02 14:45:18;;;;;;;22.10;16.95;;;;;;;11.44;73.74;99776.25;1669830;84;21125;-70
2021/11/02 14:47:47;;;;;;;18.80;15.05;;;;;;;11.49;73.72;99778.90;1671011;84;21031;-71
2021/11/02 14:50:36;;;;;;;22.65;17.20;;;;;;;11.54;73.70;99779.92;1671036;84;21510;-71
2021/11/02 14:53:30;;;;;;;22.87;17.23;;;;;;;11.56;73.64;99771.09;1669816;84;23417;-70
2021/11/02 14:56:15;;;;;;;19.30;15.58;;;;;;;11.60;73.59;99773.45;1669764;84;21232;-70
2021/11/02 14:58:45;;;;;;;22.48;17.35;;;;;;;11.63;73.51;99768.88;1671194;85;20964;-70
2021/11/02 15:01:37;;;;;;;18.82;16.02;;;;;;;11.66;73.46;99768.31;1670697;83;20983;-71
2021/11/02 15:04:10;;;;;;;;;;;;;;;11.68;73.36;99776.83;1670944;84;21695;-70
2021/11/02 15:06:44;;;;;;;19.35;14.93;;;;;;;11.69;73.33;99779.23;1670408;84;20189;-70
2021/11/02 15:09:17;;;;;;;19.17;16.20;;;;;;;11.69;73.32;99775.23;1669585;84;21543;-69
2021/11/02 15:11:48;;;;;;;22.75;17.98;;;;;;;11.72;73.29;99774.66;1669943;84;20991;-70
2021/11/02 15:14:21;;;;;;;19.80;16.00;;;;;;;11.76;73.24;99765.53;1668594;84;21558;-71
2021/11/02 15:16:54;;;;;;;22.87;17.95;;;;;;;11.79;73.20;99770.31;1670125;84;21031;-71
2021/11/02 15:19:23;;;;;;;21.23;16.50;;;;;;;11.80;73.15;99767.88;1668451;84;21146;-70
2021/11/02 15:21:58;;;;;;;18.87;15.13;;;;;;;11.84;73.09;99770.78;1670970;84;21160;-71
2021/11/02 15:24:31;;;;;;;22.95;18.27;;;;;;;11.85;73.01;99770.55;1669398;84;21457;-70
2021/11/02 15:27:05;;;;;;;21.77;17.95;;;;;;;11.86;72.95;99771.34;1668827;84;21082;-70
2021/11/02 15:29:39;;;;;;;22.15;17.95;;;;;;;11.86;72.90;99773.47;1669409;84;21099;-71
2021/11/02 15:32:12;;;;;;;20.27;16.80;;;;;;;11.88;72.81;99779.89;1670677;84;21501;-70
2021/11/02 15:34:56;;;;;;;20.43;17.23;;;;;;;11.89;72.79;99775.58;1658558;84;21128;-70
2021/11/02 15:37:38;;;;;;;20.12;16.93;;;;;;;11.90;72.78;99775.83;1669461;84;21556;-70
2021/11/02 15:40:15;;;;;;;21.97;17.30;;;;;;;11.92;72.77;99774.22;1667500;84;21564;-70
2021/11/02 15:42:45;;;;;;;23.57;17.53;;;;;;;11.92;72.72;99772.34;1669810;84;22253;-71
2021/11/02 15:45:19;;;;;;;22.25;17.17;;;;;;;11.94;72.66;99780.06;1667837;84;21466;-71
2021/11/02 15:47:49;;;;;;;22.60;17.47;;;;;;;11.93;72.65;99768.57;1670606;84;21829;-69
2021/11/02 15:50:23;;;;;;;22.50;17.85;;;;;;;11.95;72.67;99765.63;1671076;84;21422;-70
2021/11/02 15:52:50;;;;;;;19.75;16.55;;;;;;;11.99;72.64;99768.53;1670018;84;21057;-71
2021/11/02 15:55:22;;;;;;;20.23;16.57;;;;;;;11.99;72.57;99773.33;1669552;84;20991;-71
2021/11/02 15:57:53;;;;;;;21.25;17.42;;;;;;;12.00;72.54;99775.46;1670993;84;21971;-70
2021/11/02 16:00:41;;;;;;;21.37;17.87;;;;;;;12.00;72.54;99773.58;1670912;84;21275;-70
2021/11/02 16:03:14;;;;;;;22.35;18.60;;;;;;;12.05;72.50;99775.42;1670876;84;21077;-70
2021/11/02 16:05:44;;;;;;;24.63;18.60;;;;;;;12.09;72.40;99775.09;1668602;84;21514;-71
2021/11/02 16:08:23;;;;;;;24.33;19.03;;;;;;;12.11;72.37;99773.73;1670167;84;22266;-71
2021/11/02 16:10:57;;;;;;;22.20;18.12;;;;;;;12.11;72.32;99776.92;1650796;84;21274;-71
2021/11/02 16:13:27;;;;;;;22.17;18.10;;;;;;;12.14;72.32;99775.02;1657830;85;21117;-71
2021/11/02 16:15:54;;;;;;;20.27;16.43;;;;;;;12.13;72.23;99776.91;1669321;84;21079;-72
2021/11/02 16:18:24;;;;;;;23.27;17.70;;;;;;;12.14;72.20;99773.68;1671023;84;21504;-70
2021/11/02 16:20:58;;;;;;;25.02;19.62;;;;;;;12.12;72.16;99773.19;1670320;84;21329;-71
2021/11/02 16:23:28;;;;;;;23.03;18.87;;;;;;;12.09;72.14;99764.39;1670946;84;21185;-71
2021/11/02 16:25:59;;;;;;;25.50;19.07;;;;;;;12.04;72.14;99767.11;1671162;83;21816;-72
2021/11/02 16:28:31;;;;;;;28.33;20.70;;;;;;;12.01;72.18;99773.86;1669856;84;21783;-72
2021/11/02 16:31:03;;;;;;;23.97;19.60;;;;;;;11.95;72.31;99769.64;1669939;84;21786;-70
2021/11/02 16:33:39;;;;;;;23.80;19.15;;;;;;;11.93;72.37;99759.20;1670662;84;21324;-71
2021/11/02 16:36:31;;;;;;;30.32;22.73;;;;;;;11.91;72.43;99760.05;1669702;84;21139;-70
2021/11/02 16:39:19;;;;;;;33.08;24.63;;;;;;;11.90;72.47;99758.44;1644198;85;21249;-69
2021/11/02 16:41:51;;;;;;;34.60;26.53;;;;;;;11.86;72.53;99758.75;1662786;84;21587;-71
2021/11/02 16:44:29;;;;;;;36.77;28.17;;;;;;;11.85;72.58;99759.84;1670068;84;21422;-71
2021/11/02 16:47:03;;;;;;;36.90;26.95;;;;;;;11.87;72.66;99763.02;1667287;84;21082;-69
2021/11/02 16:49:32;;;;;;;35.78;25.75;;;;;;;11.91;72.74;99757.89;1669483;84;21113;-71